Time;durP1;ratioP1;P1;durP2;ratioP2;P2;SDS_P1;SDS_P2;PMS_P1;PMS_P2;Temp;Humidity;BMP_temperature;BMP_pressure;BME280_temperature;BME280_humidity;BME280_pressure;Samples;Min_cycle;Max_cycle;Signal;HPM_P1;HPM_P2
2023/10/13 00:01:58;;;;;;;4.88;2.45;;;16.30;1.00;;;;;;5028748;28;20045;-81
2023/10/13 00:04:25;;;;;;;0.43;0.43;;;16.40;1.00;;;;;;5032195;28;20518;-75
2023/10/13 00:06:52;;;;;;;1.17;1.02;;;16.40;1.00;;;;;;5030986;28;20032;-76
2023/10/13 00:09:24;;;;;;;0.82;0.82;;;16.40;1.00;;;;;;5031346;28;20394;-76
2023/10/13 00:11:52;;;;;;;0.80;0.80;;;16.50;1.00;;;;;;5028993;28;20045;-77
2023/10/13 00:14:21;;;;;;;17.88;1.85;;;16.50;1.00;;;;;;5030997;28;20032;-76
2023/10/13 00:17:03;;;;;;;0.68;0.63;;;16.50;1.00;;;;;;5031633;28;20042;-76
2023/10/13 00:19:37;;;;;;;0.30;0.30;;;16.50;1.00;;;;;;5031037;28;20025;-76
2023/10/13 00:22:11;;;;;;;0.68;0.63;;;16.60;1.00;;;;;;5027219;28;20034;-78
2023/10/13 00:24:43;;;;;;;0.70;0.70;;;16.60;1.00;;;;;;5031809;28;20860;-76
2023/10/13 00:27:24;;;;;;;1.33;0.60;;;16.60;1.00;;;;;;5029730;28;20056;-76
2023/10/13 00:29:51;;;;;;;0.55;0.45;;;16.70;1.00;;;;;;5030559;28;20041;-76
2023/10/13 00:32:23;;;;;;;2.50;1.45;;;16.60;1.00;;;;;;5030477;28;20026;-76
2023/10/13 00:34:55;;;;;;;0.75;0.65;;;16.60;1.00;;;;;;5027290;28;20033;-77
2023/10/13 00:37:27;;;;;;;0.35;0.35;;;16.60;1.00;;;;;;5027669;28;20029;-76
2023/10/13 00:39:56;;;;;;;1.75;0.70;;;16.60;1.00;;;;;;5029645;28;20049;-77
2023/10/13 00:42:30;;;;;;;2.60;2.35;;;16.60;1.00;;;;;;5027861;28;20064;-76
2023/10/13 00:44:58;;;;;;;2.17;1.75;;;16.70;1.00;;;;;;5028981;28;20450;-78
2023/10/13 00:50:04;;;;;;;2.95;1.55;;;16.60;1.00;;;;;;5029396;28;20460;-76
2023/10/13 00:52:34;;;;;;;2.47;1.50;;;16.60;1.00;;;;;;5029729;28;20056;-76
2023/10/13 00:55:01;;;;;;;3.53;0.98;;;16.70;1.00;;;;;;5023371;28;20052;-76
2023/10/13 00:57:29;;;;;;;1.73;1.13;;;16.60;1.00;;;;;;5030700;28;20037;-75
2023/10/13 01:00:11;;;;;;;0.93;0.85;;;16.60;1.00;;;;;;5028239;28;20042;-76
2023/10/13 01:02:38;;;;;;;4.43;2.65;;;16.60;1.00;;;;;;5029331;28;20060;-76
2023/10/13 01:05:09;;;;;;;0.57;0.57;;;16.60;1.00;;;;;;5027415;28;20033;-76
2023/10/13 01:07:39;;;;;;;2.35;1.70;;;16.60;1.00;;;;;;5028735;28;20382;-76
2023/10/13 01:10:14;;;;;;;1.75;1.13;;;16.60;1.00;;;;;;5028430;28;20030;-75
2023/10/13 01:12:43;;;;;;;1.63;0.93;;;16.50;1.00;;;;;;5029067;28;20029;-76
2023/10/13 01:15:11;;;;;;;1.27;1.17;;;16.50;1.00;;;;;;5028191;28;20057;-76
2023/10/13 01:17:37;;;;;;;3.33;1.45;;;16.50;1.00;;;;;;5027203;28;20038;-76
2023/10/13 01:20:05;;;;;;;1.10;1.00;;;16.40;1.00;;;;;;5021193;28;20042;-76
2023/10/13 01:22:32;;;;;;;3.55;1.00;;;16.40;1.00;;;;;;5044451;28;20402;-79
2023/10/13 01:25:09;;;;;;;0.55;0.47;;;16.40;1.00;;;;;;5030029;28;20045;-79
2023/10/13 01:27:38;;;;;;;0.95;0.63;;;16.30;1.00;;;;;;5029100;28;20205;-75
2023/10/13 01:30:22;;;;;;;2.50;0.95;;;16.30;1.00;;;;;;5029192;28;20491;-76
2023/10/13 01:32:50;;;;;;;1.08;0.70;;;16.30;1.00;;;;;;5026800;28;20552;-75
2023/10/13 01:35:36;;;;;;;3.83;1.15;;;16.20;1.00;;;;;;5026539;28;20037;-76
2023/10/13 01:38:02;;;;;;;0.40;0.40;;;16.10;1.00;;;;;;5042707;28;20056;-76
2023/10/13 01:40:33;;;;;;;0.47;0.47;;;16.10;1.00;;;;;;5029988;28;20362;-76
2023/10/13 01:43:00;;;;;;;0.52;0.52;;;16.10;1.00;;;;;;5024961;28;20437;-79
2023/10/13 01:45:28;;;;;;;1.75;1.10;;;16.10;1.00;;;;;;5043715;28;20049;-76
2023/10/13 01:47:55;;;;;;;1.33;0.70;;;16.10;1.00;;;;;;5043444;28;20458;-77
2023/10/13 01:50:29;;;;;;;1.23;1.10;;;16.00;1.00;;;;;;5026271;28;20482;-76
2023/10/13 01:53:11;;;;;;;4.30;1.67;;;16.00;1.00;;;;;;5027475;28;20512;-75
2023/10/13 01:55:43;;;;;;;2.83;1.17;;;16.00;1.00;;;;;;5030441;28;20053;-76
2023/10/13 01:58:14;;;;;;;1.08;0.82;;;16.00;1.00;;;;;;5024130;28;20490;-76
2023/10/13 02:00:43;;;;;;;1.02;0.60;;;16.00;1.00;;;;;;5042806;28;20045;-75
2023/10/13 02:03:16;;;;;;;2.65;1.70;;;16.00;1.00;;;;;;5018815;28;20757;-77
2023/10/13 02:05:52;;;;;;;1.25;1.08;;;16.00;1.00;;;;;;5030296;28;20367;-75
2023/10/13 02:08:26;;;;;;;0.85;0.85;;;16.00;1.00;;;;;;5028122;28;20021;-76
2023/10/13 02:10:58;;;;;;;0.30;0.25;;;16.00;1.00;;;;;;5026092;28;20041;-76
2023/10/13 02:13:26;;;;;;;3.35;1.13;;;16.00;1.00;;;;;;5026462;28;20097;-76
2023/10/13 02:15:57;;;;;;;4.13;1.48;;;16.00;1.00;;;;;;5027718;28;20391;-75
2023/10/13 02:18:27;;;;;;;0.70;0.70;;;16.00;1.00;;;;;;5028704;28;20475;-76
2023/10/13 02:20:55;;;;;;;0.68;0.63;;;16.00;1.00;;;;;;5044452;28;20046;-75
2023/10/13 02:23:29;;;;;;;1.17;0.77;;;15.90;1.00;;;;;;5027612;28;20049;-75
2023/10/13 02:26:10;;;;;;;1.95;1.30;;;15.90;1.00;;;;;;5029360;28;20056;-76
2023/10/13 02:28:36;;;;;;;4.72;1.63;;;15.80;1.00;;;;;;5029753;28;20037;-76
2023/10/13 02:31:04;;;;;;;1.35;1.25;;;15.80;1.00;;;;;;5025129;28;20033;-79
2023/10/13 02:33:30;;;;;;;2.03;1.35;;;15.70;1.00;;;;;;5028004;28;20041;-75
2023/10/13 02:36:05;;;;;;;0.75;0.70;;;15.70;1.00;;;;;;5028847;28;20042;-76
2023/10/13 02:38:45;;;;;;;2.58;1.63;;;15.70;1.00;;;;;;5029425;28;20082;-76
2023/10/13 02:41:25;;;;;;;1.10;1.02;;;15.60;1.00;;;;;;5028494;28;20431;-76
2023/10/13 02:43:52;;;;;;;2.67;2.10;;;15.60;1.00;;;;;;5027336;28;20033;-75
2023/10/13 02:46:23;;;;;;;7.22;1.65;;;15.60;1.00;;;;;;5028030;28;20064;-75
2023/10/13 02:48:57;;;;;;;1.70;1.38;;;15.60;1.00;;;;;;5028922;28;20033;-76
2023/10/13 02:51:31;;;;;;;1.58;0.50;;;15.50;1.00;;;;;;5025890;28;20466;-76
2023/10/13 02:54:02;;;;;;;0.57;0.55;;;15.50;1.00;;;;;;5027628;28;20045;-75
2023/10/13 02:56:29;;;;;;;0.77;0.63;;;15.50;1.00;;;;;;5028093;28;20033;-76
2023/10/13 02:59:05;;;;;;;1.70;1.17;;;15.60;1.00;;;;;;5028983;28;20037;-75
2023/10/13 03:01:35;;;;;;;0.38;0.30;;;15.60;1.00;;;;;;5029849;28;20048;-76
2023/10/13 03:04:03;;;;;;;2.38;0.82;;;15.60;1.00;;;;;;5021389;28;20261;-78
2023/10/13 03:06:32;;;;;;;1.77;1.63;;;15.70;1.00;;;;;;5028497;28;20385;-76
2023/10/13 03:09:21;;;;;;;2.25;1.65;;;15.70;1.00;;;;;;5025249;28;20049;-75
2023/10/13 03:11:51;;;;;;;5.00;1.60;;;15.70;1.00;;;;;;5026086;28;20038;-75
2023/10/13 03:17:15;;;;;;;1.85;1.48;;;15.70;1.00;;;;;;5043912;28;20054;-76
2023/10/13 03:19:51;;;;;;;;;;;15.70;1.00;;;;;;5030659;28;20038;-75
2023/10/13 03:22:18;;;;;;;0.50;0.40;;;15.70;1.00;;;;;;5029337;28;19909;-77
2023/10/13 03:24:46;;;;;;;1.95;1.45;;;15.70;1.00;;;;;;5030501;28;20478;-76
2023/10/13 03:27:17;;;;;;;1.13;1.02;;;15.70;1.00;;;;;;5030756;28;20040;-77
2023/10/13 03:29:54;;;;;;;1.40;0.95;;;15.80;1.00;;;;;;5030184;28;20037;-76
2023/10/13 03:32:20;;;;;;;0.68;0.60;;;15.80;1.00;;;;;;5028692;28;20041;-76
2023/10/13 03:35:12;;;;;;;1.98;1.77;;;15.80;1.00;;;;;;5027064;28;20038;-76
2023/10/13 03:37:38;;;;;;;3.42;0.55;;;15.80;1.00;;;;;;5029716;28;20036;-76
2023/10/13 03:43:04;;;;;;;2.60;1.27;;;15.80;1.00;;;;;;5033089;28;20046;-76
2023/10/13 03:45:42;;;;;;;1.25;0.68;;;15.90;1.00;;;;;;5028612;28;20073;-76
2023/10/13 03:48:11;;;;;;;0.50;0.50;;;15.90;1.00;;;;;;5027804;28;20030;-76
2023/10/13 03:50:57;;;;;;;0.60;0.40;;;15.90;1.00;;;;;;5030090;28;20040;-76
2023/10/13 03:53:25;;;;;;;1.15;0.77;;;15.90;1.00;;;;;;5029265;28;20045;-76
2023/10/13 03:56:07;;;;;;;2.95;1.13;;;15.90;1.00;;;;;;5028410;28;20033;-76
2023/10/13 03:58:35;;;;;;;1.23;1.00;;;15.90;1.00;;;;;;5029955;28;20041;-76
2023/10/13 04:01:01;;;;;;;2.95;1.20;;;16.00;1.00;;;;;;5029771;28;20053;-76
2023/10/13 04:03:42;;;;;;;1.55;1.10;;;15.90;1.00;;;;;;5030382;28;20038;-80
2023/10/13 04:06:16;;;;;;;1.45;1.35;;;15.90;1.00;;;;;;5020057;28;20033;-79
2023/10/13 04:16:50;;;;;;;2.08;0.85;;;16.00;1.00;;;;;;5028394;28;20037;-76
2023/10/13 04:19:22;;;;;;;0.75;0.50;;;16.00;1.00;;;;;;5030183;28;20041;-77
2023/10/13 04:21:57;;;;;;;2.60;1.73;;;16.00;1.00;;;;;;5031486;28;20036;-77
2023/10/13 04:32:28;;;;;;;0.55;0.55;;;16.00;1.00;;;;;;5027170;28;20034;-77
2023/10/13 04:35:08;;;;;;;1.95;1.40;;;16.00;1.00;;;;;;5029522;28;20037;-77
2023/10/13 04:37:50;;;;;;;2.63;1.33;;;16.00;1.00;;;;;;5028465;28;20064;-77
2023/10/13 04:40:19;;;;;;;2.33;1.95;;;15.90;1.00;;;;;;5031269;28;20418;-78
2023/10/13 04:42:49;;;;;;;2.25;0.98;;;15.90;1.00;;;;;;5030478;28;20393;-76
2023/10/13 04:50:47;;;;;;;0.50;0.40;;;15.90;1.00;;;;;;5030967;28;20040;-79
2023/10/13 04:53:33;;;;;;;3.30;0.95;;;15.90;1.00;;;;;;5027616;28;20036;-77
2023/10/13 05:04:21;;;;;;;1.40;1.25;;;16.00;99.90;;;;;;5030615;28;20029;-78
2023/10/13 06:28:43;;;;;;;0.57;0.57;;;16.10;1.00;;;;;;5023497;28;20036;-77
2023/10/13 06:31:34;;;;;;;0.65;0.40;;;16.20;1.00;;;;;;5029071;28;20084;-76
2023/10/13 06:33:57;;;;;;;1.48;1.00;;;16.20;1.00;;;;;;5025590;28;20053;-77
2023/10/13 06:36:23;;;;;;;0.63;0.38;;;16.20;1.00;;;;;;5026293;28;20040;-76
2023/10/13 06:39:20;;;;;;;0.90;0.80;;;16.20;1.00;;;;;;5026837;28;20098;-77
2023/10/13 06:41:41;;;;;;;6.00;1.25;;;16.30;1.00;;;;;;5029466;28;20373;-75
2023/10/13 06:44:14;;;;;;;6.22;0.47;;;16.40;1.00;;;;;;5027217;28;20048;-78
2023/10/13 06:46:41;;;;;;;2.45;1.67;;;16.40;1.00;;;;;;5033749;28;20034;-78
2023/10/13 06:49:08;;;;;;;0.95;0.68;;;16.40;1.00;;;;;;5037616;28;20390;-80
2023/10/13 06:51:37;;;;;;;0.65;0.55;;;16.50;1.00;;;;;;5028913;28;20044;-80
2023/10/13 06:54:09;;;;;;;1.02;0.75;;;16.60;1.00;;;;;;5031249;28;20033;-79
2023/10/13 06:56:39;;;;;;;1.08;0.73;;;16.60;1.00;;;;;;5027015;28;20030;-81
2023/10/13 06:59:06;;;;;;;2.77;1.47;;;16.70;1.00;;;;;;5025907;28;20042;-80
2023/10/13 07:01:39;;;;;;;1.60;0.68;;;16.80;1.00;;;;;;5030681;28;20280;-81
2023/10/13 07:04:13;;;;;;;1.90;0.47;;;16.80;1.00;;;;;;5030117;28;20053;-81
2023/10/13 07:06:47;;;;;;;1.75;0.57;;;16.90;1.00;;;;;;5028018;28;20050;-81
2023/10/13 07:09:39;;;;;;;2.38;0.90;;;17.00;1.00;;;;;;5033843;28;20040;-81
2023/10/13 07:12:22;;;;;;;0.98;0.88;;;17.10;1.00;;;;;;5029912;28;20040;-81
2023/10/13 07:14:51;;;;;;;0.30;0.30;;;17.30;99.90;;;;;;5030180;28;20349;-81
2023/10/13 07:17:25;;;;;;;1.05;0.30;;;17.50;99.90;;;;;;5024610;28;20045;-81
2023/10/13 07:19:59;;;;;;;0.50;0.30;;;17.70;99.90;;;;;;5031810;28;20033;-83
2023/10/13 07:22:27;;;;;;;6.57;1.92;;;17.80;99.90;;;;;;5032787;28;20048;-82
2023/10/13 07:24:53;;;;;;;1.55;1.08;;;17.90;99.90;;;;;;5031403;28;20052;-81
2023/10/13 07:27:24;;;;;;;0.57;0.57;;;18.10;99.90;;;;;;5028408;28;20040;-82
2023/10/13 07:30:13;;;;;;;0.73;0.73;;;18.10;99.90;;;;;;5033705;28;20050;-81
2023/10/13 07:32:45;;;;;;;0.68;0.38;;;18.20;99.90;;;;;;5030400;28;20037;-81
2023/10/13 07:35:19;;;;;;;0.98;0.73;;;18.20;99.90;;;;;;5031560;28;20034;-83
2023/10/13 07:37:48;;;;;;;0.65;0.55;;;18.30;99.90;;;;;;5027521;28;20040;-81
2023/10/13 07:43:08;;;;;;;0.63;0.63;;;18.40;99.90;;;;;;5033076;28;20033;-81
2023/10/13 07:45:39;;;;;;;0.60;0.60;;;18.60;99.90;;;;;;5030428;28;20038;-81
2023/10/13 07:48:20;;;;;;;0.30;0.30;;;18.80;99.90;;;;;;5046073;28;20045;-81
2023/10/13 07:50:48;;;;;;;;;;;18.90;99.90;;;;;;5031606;28;20034;-81
2023/10/13 07:53:24;;;;;;;1.20;0.68;;;19.20;99.90;;;;;;5036915;28;19916;-81
2023/10/13 07:55:55;;;;;;;0.80;0.40;;;19.30;99.90;;;;;;5030679;28;20044;-82
2023/10/13 07:58:24;;;;;;;0.30;0.30;;;19.40;99.90;;;;;;5028498;28;20057;-82
2023/10/13 08:01:07;;;;;;;0.43;0.35;;;19.60;99.90;;;;;;5032616;28;20057;-81
2023/10/13 08:03:44;;;;;;;4.20;1.88;;;20.00;99.90;;;;;;5031469;28;20040;-81
2023/10/13 08:08:38;;;;;;;0.85;0.73;;;20.00;99.70;;;;;;5028210;28;20127;-81
2023/10/13 08:13:58;;;;;;;1.13;0.80;;;20.20;96.30;;;;;;5031484;28;20041;-82
2023/10/13 08:19:18;;;;;;;0.35;0.35;;;19.90;99.60;;;;;;5031693;28;20045;-81
2023/10/13 08:21:51;;;;;;;1.67;1.27;;;19.80;99.90;;;;;;5027942;28;20029;-81
2023/10/13 08:24:27;;;;;;;1.85;1.25;;;19.90;99.90;;;;;;5044400;28;20045;-83
2023/10/13 08:34:59;;;;;;;2.40;1.83;;;20.60;47.50;;;;;;5032048;28;20040;-81
2023/10/13 08:56:14;;;;;;;18.50;2.03;;;22.50;1.00;;;;;;5027381;28;20202;-81
2023/10/13 09:01:59;;;;;;;4.90;2.50;;;22.70;1.00;;;;;;5028137;28;20049;-82
2023/10/13 09:04:35;;;;;;;1.27;0.80;;;22.90;1.00;;;;;;5029180;28;20033;-82
2023/10/13 09:12:14;;;;;;;3.65;1.48;;;23.40;99.90;;;;;;5028920;28;20117;-83
2023/10/13 09:14:45;;;;;;;0.30;0.30;;;23.60;99.90;;;;;;5029866;28;20049;-81
2023/10/13 09:17:12;;;;;;;5.10;1.20;;;23.90;99.90;;;;;;5029316;28;20050;-82
2023/10/13 09:19:49;;;;;;;1.38;0.30;;;23.90;99.90;;;;;;5027514;28;20052;-82
2023/10/13 09:22:35;;;;;;;1.65;0.73;;;23.60;99.90;;;;;;5031211;28;20044;-81
2023/10/13 09:25:04;;;;;;;3.78;1.63;;;23.50;99.90;;;;;;5026740;28;20037;-83
2023/10/13 09:27:37;;;;;;;1.50;0.63;;;23.40;99.90;;;;;;5027962;28;20121;-81
2023/10/13 09:30:30;;;;;;;0.30;0.30;;;23.50;99.90;;;;;;5029262;28;20037;-82
2023/10/13 09:33:04;;;;;;;0.77;0.65;;;23.50;99.90;;;;;;5027902;28;20048;-82
2023/10/13 09:35:33;;;;;;;0.82;0.82;;;23.60;99.90;;;;;;5027715;28;20034;-81
2023/10/13 09:38:03;;;;;;;1.27;0.80;;;23.70;99.90;;;;;;5027749;28;20045;-83
2023/10/13 09:43:05;;;;;;;3.40;1.27;;;23.40;99.90;;;;;;5026903;28;20044;-82
2023/10/13 09:45:39;;;;;;;0.52;0.52;;;23.30;99.90;;;;;;5027994;28;20029;-83
2023/10/13 09:48:21;;;;;;;0.65;0.55;;;23.40;99.90;;;;;;5024500;28;20041;-82
2023/10/13 09:50:48;;;;;;;13.68;1.40;;;23.40;99.90;;;;;;5029515;28;20044;-82
2023/10/13 09:53:18;;;;;;;0.85;0.85;;;23.50;99.90;;;;;;5030366;28;20036;-82
2023/10/13 09:55:49;;;;;;;1.15;0.88;;;23.50;99.90;;;;;;5029015;28;20029;-83
2023/10/13 09:58:17;;;;;;;0.55;0.38;;;23.50;99.90;;;;;;5028355;28;20044;-82
2023/10/13 10:00:57;;;;;;;9.52;1.45;;;23.70;99.90;;;;;;5027376;28;20053;-83
2023/10/13 10:03:39;;;;;;;2.33;0.85;;;23.90;99.90;;;;;;5030225;28;20033;-82
2023/10/13 10:06:07;;;;;;;0.40;0.40;;;23.80;99.90;;;;;;5030633;28;20033;-83
2023/10/13 10:08:34;;;;;;;0.30;0.30;;;23.90;99.90;;;;;;5026963;28;20086;-83
2023/10/13 10:11:26;;;;;;;1.30;0.77;;;23.80;99.90;;;;;;5029879;28;20069;-81
2023/10/13 10:14:08;;;;;;;2.85;0.63;;;24.10;99.90;;;;;;5029368;28;20033;-82
2023/10/13 10:16:46;;;;;;;0.77;0.70;;;24.30;99.90;;;;;;5026676;28;20387;-83
2023/10/13 10:19:13;;;;;;;0.40;0.40;;;24.50;99.90;;;;;;5026366;28;20040;-82
2023/10/13 10:21:41;;;;;;;0.25;0.25;;;24.40;99.90;;;;;;5028161;28;20045;-82
2023/10/13 10:24:29;;;;;;;0.43;0.43;;;24.60;99.90;;;;;;5026769;28;20038;-85
2023/10/13 10:26:56;;;;;;;1.35;0.50;;;24.70;99.90;;;;;;5028843;28;20044;-81
2023/10/13 10:29:22;;;;;;;0.30;0.30;;;25.00;99.90;;;;;;5025348;28;20455;-81
2023/10/13 10:31:50;;;;;;;2.38;1.73;;;25.30;99.90;;;;;;5015945;28;20042;-79
2023/10/13 10:34:21;;;;;;;0.47;0.47;;;25.60;99.90;;;;;;5027521;28;20359;-79
2023/10/13 10:36:53;;;;;;;0.82;0.82;;;25.70;99.90;;;;;;5026347;28;20479;-75
2023/10/13 10:39:19;;;;;;;2.42;0.88;;;25.90;99.90;;;;;;5027635;28;20052;-81
2023/10/13 10:44:37;;;;;;;3.40;1.33;;;26.20;99.90;;;;;;5028593;28;20045;-79
2023/10/13 10:47:30;;;;;;;1.63;0.68;;;26.20;99.90;;;;;;5026542;28;20030;-79
2023/10/13 10:50:07;;;;;;;4.93;1.05;;;26.10;99.90;;;;;;5024573;28;20074;-80
2023/10/13 10:52:39;;;;;;;3.35;1.52;;;26.30;99.90;;;;;;5023150;28;20025;-79
2023/10/13 10:55:11;;;;;;;0.30;0.30;;;26.30;99.90;;;;;;5027498;28;20046;-81
2023/10/13 10:57:38;;;;;;;1.45;0.95;;;26.10;99.90;;;;;;5027681;28;20041;-79
2023/10/13 11:00:11;;;;;;;0.40;0.40;;;26.00;99.90;;;;;;5026976;28;20387;-80
2023/10/13 11:02:38;;;;;;;0.93;0.73;;;25.90;99.90;;;;;;5026051;28;20034;-80
2023/10/13 11:05:06;;;;;;;1.80;1.02;;;25.90;99.90;;;;;;5028422;28;20020;-80
2023/10/13 11:07:34;;;;;;;0.30;0.30;;;25.80;99.90;;;;;;5027429;28;20041;-80
2023/10/13 11:10:26;;;;;;;0.50;0.50;;;25.80;99.90;;;;;;5026535;28;20025;-80
2023/10/13 11:13:13;;;;;;;1.10;0.95;;;25.90;99.90;;;;;;5027847;28;20038;-81
2023/10/13 11:15:46;;;;;;;1.48;1.02;;;25.80;99.90;;;;;;5024227;28;20049;-81
2023/10/13 11:18:22;;;;;;;1.25;0.95;;;25.70;99.90;;;;;;5025526;28;20045;-80
2023/10/13 11:20:55;;;;;;;0.68;0.68;;;25.70;99.90;;;;;;5026373;28;20520;-81
2023/10/13 11:23:28;;;;;;;1.15;0.95;;;25.60;99.90;;;;;;5026257;28;20030;-80
2023/10/13 11:26:00;;;;;;;0.52;0.50;;;25.50;99.90;;;;;;5028687;28;20029;-81
2023/10/13 11:28:27;;;;;;;0.75;0.75;;;25.50;99.90;;;;;;5026246;28;20033;-81
2023/10/13 11:31:04;;;;;;;0.88;0.88;;;25.50;99.90;;;;;;5023398;28;20725;-80
2023/10/13 11:33:31;;;;;;;0.30;0.30;;;25.50;99.90;;;;;;5030818;28;20056;-81
2023/10/13 11:36:02;;;;;;;1.00;0.57;;;25.50;99.90;;;;;;5031297;28;20100;-83
2023/10/13 11:43:36;;;;;;;0.35;0.30;;;25.70;99.90;;;;;;5031489;28;20076;-80
2023/10/13 11:48:36;;;;;;;0.95;0.32;;;26.10;99.90;;;;;;5029529;28;20152;-79
2023/10/13 11:51:07;;;;;;;0.30;0.30;;;26.20;99.90;;;;;;5030395;28;20056;-80
2023/10/13 11:53:37;;;;;;;4.38;1.48;;;26.30;99.90;;;;;;5030095;28;20451;-81
2023/10/13 11:56:10;;;;;;;;;;;26.40;99.90;;;;;;5030079;28;20053;-81
2023/10/13 11:58:37;;;;;;;1.65;1.00;;;26.50;99.90;;;;;;5030770;28;19925;-81
2023/10/13 12:12:00;;;;;;;0.47;0.45;;;26.30;99.90;;;;;;5027578;28;20249;-81
2023/10/13 12:14:37;;;;;;;0.30;0.30;;;26.00;99.90;;;;;;5031797;28;20045;-82
2023/10/13 12:17:10;;;;;;;0.70;0.70;;;25.90;99.90;;;;;;5029113;28;20041;-77
2023/10/13 12:19:38;;;;;;;0.57;0.55;;;26.00;99.90;;;;;;5028445;28;20044;-80
2023/10/13 12:22:08;;;;;;;0.30;0.30;;;26.00;99.90;;;;;;5031243;28;20041;-81
2023/10/13 12:27:20;;;;;;;0.65;0.50;;;26.20;99.90;;;;;;5036404;28;20042;-81
2023/10/13 12:29:53;;;;;;;0.45;0.40;;;26.20;99.90;;;;;;5028574;28;20455;-81
2023/10/13 12:32:24;;;;;;;1.05;0.93;;;26.10;99.90;;;;;;5029526;28;20033;-80
2023/10/13 12:34:59;;;;;;;1.35;0.95;;;26.10;99.90;;;;;;5029272;28;20041;-80
2023/10/13 12:48:58;;;;;;;0.38;0.38;;;27.20;99.90;;;;;;5030598;28;20060;-81
2023/10/13 12:56:46;;;;;;;0.75;0.63;;;27.70;88.50;;;;;;5027990;28;20029;-80
2023/10/13 12:59:15;;;;;;;0.35;0.35;;;27.80;87.20;;;;;;5019792;28;20099;-80
2023/10/13 13:01:44;;;;;;;1.15;0.88;;;27.80;79.40;;;;;;5030122;28;20057;-79
2023/10/13 13:04:19;;;;;;;0.52;0.52;;;27.70;82.00;;;;;;5026359;28;20463;-81
2023/10/13 13:06:47;;;;;;;1.90;1.05;;;27.60;87.90;;;;;;5029949;28;20034;-81
2023/10/13 13:09:13;;;;;;;1.50;1.38;;;27.60;79.10;;;;;;5026522;28;20041;-82
2023/10/13 13:11:40;;;;;;;0.70;0.70;;;27.70;76.40;;;;;;5029399;28;20032;-81
2023/10/13 13:14:09;;;;;;;0.52;0.52;;;27.70;81.10;;;;;;5030779;28;20049;-76
2023/10/13 13:16:38;;;;;;;2.97;0.28;;;27.60;75.10;;;;;;5028691;28;20034;-81
2023/10/13 13:19:14;;;;;;;1.13;0.50;;;27.60;82.10;;;;;;5035396;28;20048;-80
2023/10/13 13:21:40;;;;;;;0.40;0.40;;;27.80;79.20;;;;;;5028441;28;20064;-80
2023/10/13 13:24:10;;;;;;;0.60;0.35;;;27.70;74.90;;;;;;5033278;28;20391;-80
2023/10/13 13:26:40;;;;;;;0.52;0.52;;;27.60;76.30;;;;;;5028391;28;20493;-82
2023/10/13 13:29:09;;;;;;;2.65;0.70;;;27.50;69.70;;;;;;5027717;28;20513;-79
2023/10/13 13:31:43;;;;;;;0.73;0.73;;;27.40;79.40;;;;;;5028345;28;20037;-79
2023/10/13 13:34:09;;;;;;;1.35;1.23;;;27.40;80.50;;;;;;5027017;28;20494;-80
2023/10/13 13:36:36;;;;;;;0.60;0.60;;;27.40;82.70;;;;;;5027452;28;20112;-80
2023/10/13 13:39:02;;;;;;;1.35;0.32;;;27.50;80.10;;;;;;5027623;28;20061;-82
2023/10/13 13:41:32;;;;;;;2.22;1.92;;;27.50;68.40;;;;;;5026765;28;20029;-80
2023/10/13 13:44:13;;;;;;;0.30;0.30;;;27.30;75.30;;;;;;5030725;28;20332;-80
2023/10/13 13:46:42;;;;;;;0.52;0.52;;;27.30;72.50;;;;;;5029883;28;20037;-80
2023/10/13 13:49:17;;;;;;;0.47;0.43;;;27.40;72.20;;;;;;5029380;28;20041;-81
2023/10/13 13:51:51;;;;;;;0.52;0.52;;;27.40;68.20;;;;;;5028575;28;20033;-81
2023/10/13 13:54:19;;;;;;;0.80;0.80;;;27.50;65.80;;;;;;5026902;28;20045;-81
2023/10/13 13:56:46;;;;;;;0.20;0.20;;;27.50;65.80;;;;;;5026472;28;20373;-81
2023/10/13 13:59:15;;;;;;;0.70;0.70;;;27.50;72.60;;;;;;5028038;28;20057;-82
2023/10/13 14:01:44;;;;;;;0.20;0.20;;;27.50;65.90;;;;;;5027563;28;20391;-81
2023/10/13 14:04:10;;;;;;;0.10;0.10;;;27.30;64.70;;;;;;5028066;28;20391;-81
2023/10/13 14:06:37;;;;;;;0.30;0.30;;;27.30;73.80;;;;;;5029463;28;20029;-79
2023/10/13 14:09:32;;;;;;;0.22;0.22;;;27.30;65.60;;;;;;5027681;28;20426;-81
2023/10/13 14:14:50;;;;;;;0.57;0.57;;;27.40;49.70;;;;;;5027145;28;20038;-81
2023/10/13 14:17:17;;;;;;;0.47;0.47;;;27.50;52.20;;;;;;5025449;28;20033;-80
2023/10/13 14:19:45;;;;;;;0.55;0.45;;;27.50;55.30;;;;;;5028678;28;20037;-80
2023/10/13 14:22:12;;;;;;;1.33;1.15;;;27.40;48.00;;;;;;5029173;28;20030;-81
2023/10/13 14:24:47;;;;;;;0.43;0.38;;;27.20;51.80;;;;;;5029620;28;20037;-77
2023/10/13 14:27:35;;;;;;;3.25;1.63;;;27.10;48.60;;;;;;5023215;28;20497;-77
2023/10/13 14:30:00;;;;;;;0.20;0.20;;;27.20;47.80;;;;;;5028412;28;20041;-78
2023/10/13 14:32:27;;;;;;;0.63;0.30;;;27.40;49.70;;;;;;5027789;28;20042;-79
2023/10/13 14:34:56;;;;;;;2.28;0.80;;;27.40;37.50;;;;;;5027656;28;20303;-79
2023/10/13 14:37:26;;;;;;;0.30;0.30;;;27.50;37.90;;;;;;5027931;28;20060;-79
2023/10/13 14:39:56;;;;;;;1.05;0.95;;;27.70;44.50;;;;;;5028464;28;20294;-80
2023/10/13 14:42:24;;;;;;;0.35;0.32;;;27.60;39.20;;;;;;5028600;28;20530;-77
2023/10/13 14:44:55;;;;;;;0.47;0.47;;;27.60;38.10;;;;;;5027744;28;20044;-78
2023/10/13 14:47:25;;;;;;;1.05;0.80;;;27.50;52.00;;;;;;5029931;28;20042;-78
2023/10/13 14:49:54;;;;;;;;;;;27.50;42.80;;;;;;5027515;28;20029;-79
2023/10/13 14:52:22;;;;;;;1.40;1.02;;;27.50;38.90;;;;;;5027710;28;19920;-76
2023/10/13 14:54:55;;;;;;;0.50;0.35;;;27.50;36.20;;;;;;5026496;28;20475;-79
2023/10/13 14:57:25;;;;;;;0.40;0.40;;;27.40;31.20;;;;;;5028151;28;20029;-79
2023/10/13 14:59:52;;;;;;;0.47;0.30;;;27.40;34.60;;;;;;5027300;28;20053;-79
2023/10/13 15:02:19;;;;;;;0.30;0.30;;;27.40;40.60;;;;;;5026578;28;20049;-79
2023/10/13 15:04:48;;;;;;;0.30;0.30;;;27.40;28.70;;;;;;5028271;28;20521;-80
2023/10/13 15:07:16;;;;;;;0.35;0.20;;;27.50;32.20;;;;;;5030966;28;20037;-77
2023/10/13 15:09:43;;;;;;;0.25;0.25;;;27.40;28.30;;;;;;5033514;28;20352;-80
2023/10/13 15:12:10;;;;;;;1.17;1.08;;;27.30;31.70;;;;;;5032215;28;20025;-83
2023/10/13 15:14:43;;;;;;;0.63;0.52;;;27.30;33.60;;;;;;5032121;28;20033;-83
2023/10/13 15:17:10;;;;;;;0.60;0.60;;;27.30;39.80;;;;;;5026775;28;20046;-79
2023/10/13 15:19:38;;;;;;;6.93;0.95;;;27.30;29.60;;;;;;5031617;28;20061;-84
2023/10/13 15:22:12;;;;;;;2.10;0.82;;;27.30;31.60;;;;;;5030565;28;20037;-78
2023/10/13 15:24:45;;;;;;;1.52;0.82;;;27.30;22.80;;;;;;5029759;28;20037;-84
2023/10/13 15:27:11;;;;;;;0.55;0.55;;;27.20;13.90;;;;;;5032007;28;20044;-80
2023/10/13 15:29:38;;;;;;;0.43;0.38;;;27.20;16.50;;;;;;5032076;28;20053;-82
2023/10/13 15:32:41;;;;;;;0.63;0.63;;;27.20;17.40;;;;;;5031724;28;20037;-79
2023/10/13 15:34:51;;;;;;;0.25;0.25;;;27.20;19.30;;;;;;5027885;28;20036;-80
2023/10/13 15:37:19;;;;;;;0.73;0.65;;;27.20;12.90;;;;;;5030693;28;20033;-77
2023/10/13 15:39:45;;;;;;;7.18;1.33;;;27.10;15.70;;;;;;5030534;28;20045;-79
2023/10/13 15:42:14;;;;;;;0.80;0.80;;;26.90;24.20;;;;;;5030327;28;20029;-77
2023/10/13 15:44:43;;;;;;;3.97;1.13;;;26.70;34.10;;;;;;5028760;28;20034;-76
2023/10/13 15:47:12;;;;;;;0.65;0.40;;;26.60;38.70;;;;;;5032687;28;20029;-79
2023/10/13 15:49:42;;;;;;;1.00;0.90;;;26.40;50.00;;;;;;5027515;28;20459;-83
2023/10/13 15:52:09;;;;;;;1.67;0.85;;;26.30;55.30;;;;;;5028841;28;20478;-76
2023/10/13 15:54:36;;;;;;;0.45;0.35;;;26.10;59.70;;;;;;5029028;28;20042;-76
2023/10/13 15:57:06;;;;;;;1.13;0.95;;;26.00;69.20;;;;;;5030258;28;20033;-78
2023/10/13 15:59:34;;;;;;;2.97;1.33;;;25.80;74.20;;;;;;5029517;28;20076;-77
2023/10/13 16:02:01;;;;;;;0.60;0.55;;;25.80;77.40;;;;;;5031298;28;20053;-79
2023/10/13 16:04:27;;;;;;;0.55;0.45;;;25.60;88.20;;;;;;5031309;28;20052;-77
2023/10/13 16:06:53;;;;;;;0.50;0.40;;;25.50;89.50;;;;;;5022520;28;20029;-77
2023/10/13 16:09:22;;;;;;;0.85;0.80;;;25.30;92.40;;;;;;5031448;28;20048;-77
2023/10/13 16:11:50;;;;;;;0.80;0.70;;;25.20;96.20;;;;;;5030344;28;20037;-76
2023/10/13 16:14:20;;;;;;;1.17;1.00;;;25.10;95.70;;;;;;5027136;28;20041;-77
2023/10/13 16:16:48;;;;;;;0.38;0.32;;;25.00;99.90;;;;;;5028616;28;20482;-78
2023/10/13 16:19:21;;;;;;;0.63;0.63;;;24.90;99.90;;;;;;5031125;28;20454;-78
2023/10/13 16:21:48;;;;;;;1.38;0.80;;;24.80;99.90;;;;;;5026614;28;20100;-78
2023/10/13 16:24:17;;;;;;;3.00;0.43;;;24.70;99.90;;;;;;5032323;28;20032;-78
2023/10/13 16:26:44;;;;;;;7.38;1.85;;;24.60;99.90;;;;;;5029799;28;20033;-76
2023/10/13 16:29:10;;;;;;;2.85;1.33;;;24.50;99.90;;;;;;5029956;28;20041;-79
2023/10/13 16:31:36;;;;;;;0.20;0.20;;;24.40;99.90;;;;;;5029812;28;20030;-77
2023/10/13 16:34:05;;;;;;;1.02;0.77;;;24.30;99.90;;;;;;5030727;28;20566;-76
2023/10/13 16:36:31;;;;;;;0.40;0.40;;;24.30;99.90;;;;;;5032409;28;20042;-76
2023/10/13 16:39:00;;;;;;;0.98;0.90;;;24.30;99.90;;;;;;5031762;28;20485;-76
2023/10/13 16:41:27;;;;;;;0.88;0.80;;;24.20;99.90;;;;;;5029711;28;20041;-75
2023/10/13 16:43:53;;;;;;;0.55;0.55;;;24.10;99.90;;;;;;5030070;28;20033;-74
2023/10/13 16:46:19;;;;;;;1.30;0.80;;;24.10;99.90;;;;;;5030250;28;20033;-76
2023/10/13 16:48:48;;;;;;;1.10;0.77;;;24.00;99.90;;;;;;5030286;28;20037;-74